sensor_id;sensor_type;location;lat;lon;timestamp;P1;durP1;ratioP1;P2;durP2;ratioP2
45620;SDS011;31345;51.522;10.702;2022-08-19T00:00:39;19.60;;;15.82;;
45620;SDS011;31345;51.522;10.702;2022-08-19T00:03:06;20.08;;;17.88;;
45620;SDS011;31345;51.522;10.702;2022-08-19T00:05:34;19.65;;;16.80;;
45620;SDS011;31345;51.522;10.702;2022-08-19T00:08:04;18.05;;;16.20;;
45620;SDS011;31345;51.522;10.702;2022-08-19T00:10:31;20.10;;;16.70;;
45620;SDS011;31345;51.522;10.702;2022-08-19T00:12:59;24.17;;;18.33;;
45620;SDS011;31345;51.522;10.702;2022-08-19T00:15:27;20.38;;;17.50;;
45620;SDS011;31345;51.522;10.702;2022-08-19T00:17:55;20.13;;;15.57;;
45620;SDS011;31345;51.522;10.702;2022-08-19T00:20:22;23.10;;;16.75;;
45620;SDS011;31345;51.522;10.702;2022-08-19T00:22:51;21.25;;;16.38;;
45620;SDS011;31345;51.522;10.702;2022-08-19T00:25:21;19.45;;;16.75;;
45620;SDS011;31345;51.522;10.702;2022-08-19T00:27:49;21.70;;;17.98;;
45620;SDS011;31345;51.522;10.702;2022-08-19T00:30:16;22.85;;;17.27;;
45620;SDS011;31345;51.522;10.702;2022-08-19T00:32:44;20.05;;;17.23;;
45620;SDS011;31345;51.522;10.702;2022-08-19T00:35:12;19.58;;;17.08;;
45620;SDS011;31345;51.522;10.702;2022-08-19T00:37:39;20.50;;;17.13;;
45620;SDS011;31345;51.522;10.702;2022-08-19T00:40:10;19.55;;;15.88;;
45620;SDS011;31345;51.522;10.702;2022-08-19T00:42:40;21.10;;;17.77;;
45620;SDS011;31345;51.522;10.702;2022-08-19T00:45:10;20.17;;;17.77;;
45620;SDS011;31345;51.522;10.702;2022-08-19T00:47:40;19.40;;;16.75;;
45620;SDS011;31345;51.522;10.702;2022-08-19T00:50:08;18.95;;;16.80;;
45620;SDS011;31345;51.522;10.702;2022-08-19T00:52:39;18.95;;;16.13;;
45620;SDS011;31345;51.522;10.702;2022-08-19T00:55:13;18.20;;;16.15;;
45620;SDS011;31345;51.522;10.702;2022-08-19T00:57:46;21.33;;;16.88;;
45620;SDS011;31345;51.522;10.702;2022-08-19T01:00:18;18.42;;;15.68;;
45620;SDS011;31345;51.522;10.702;2022-08-19T01:02:46;19.08;;;15.93;;
45620;SDS011;31345;51.522;10.702;2022-08-19T01:05:14;17.08;;;15.25;;
45620;SDS011;31345;51.522;10.702;2022-08-19T01:07:46;18.58;;;14.73;;
45620;SDS011;31345;51.522;10.702;2022-08-19T01:10:16;18.75;;;16.55;;
45620;SDS011;31345;51.522;10.702;2022-08-19T01:12:47;18.48;;;15.50;;
45620;SDS011;31345;51.522;10.702;2022-08-19T01:15:17;20.75;;;15.88;;
45620;SDS011;31345;51.522;10.702;2022-08-19T01:20:17;21.10;;;16.55;;
45620;SDS011;31345;51.522;10.702;2022-08-19T01:22:49;18.35;;;16.40;;
45620;SDS011;31345;51.522;10.702;2022-08-19T01:25:18;19.80;;;17.00;;
45620;SDS011;31345;51.522;10.702;2022-08-19T01:27:49;21.23;;;17.33;;
45620;SDS011;31345;51.522;10.702;2022-08-19T01:30:21;17.70;;;15.73;;
45620;SDS011;31345;51.522;10.702;2022-08-19T01:32:52;18.70;;;16.75;;
45620;SDS011;31345;51.522;10.702;2022-08-19T01:35:21;18.40;;;16.33;;
45620;SDS011;31345;51.522;10.702;2022-08-19T01:37:52;18.52;;;15.48;;
45620;SDS011;31345;51.522;10.702;2022-08-19T01:40:23;19.77;;;16.88;;
45620;SDS011;31345;51.522;10.702;2022-08-19T01:45:21;19.73;;;15.80;;
45620;SDS011;31345;51.522;10.702;2022-08-19T01:47:50;19.33;;;15.70;;
45620;SDS011;31345;51.522;10.702;2022-08-19T01:50:19;19.92;;;16.50;;
45620;SDS011;31345;51.522;10.702;2022-08-19T01:52:46;19.05;;;16.90;;
45620;SDS011;31345;51.522;10.702;2022-08-19T01:55:17;18.00;;;16.10;;
45620;SDS011;31345;51.522;10.702;2022-08-19T01:57:47;21.63;;;17.35;;
45620;SDS011;31345;51.522;10.702;2022-08-19T02:00:17;22.83;;;18.23;;
45620;SDS011;31345;51.522;10.702;2022-08-19T02:02:46;19.90;;;17.80;;
45620;SDS011;31345;51.522;10.702;2022-08-19T02:05:14;18.55;;;16.65;;
45620;SDS011;31345;51.522;10.702;2022-08-19T02:07:46;18.98;;;16.80;;
45620;SDS011;31345;51.522;10.702;2022-08-19T02:10:20;19.40;;;17.05;;
45620;SDS011;31345;51.522;10.702;2022-08-19T02:12:49;17.90;;;16.10;;
45620;SDS011;31345;51.522;10.702;2022-08-19T02:15:17;21.45;;;16.90;;
45620;SDS011;31345;51.522;10.702;2022-08-19T02:17:46;20.05;;;16.55;;
45620;SDS011;31345;51.522;10.702;2022-08-19T02:20:14;20.45;;;17.98;;
45620;SDS011;31345;51.522;10.702;2022-08-19T02:22:42;21.25;;;19.05;;
45620;SDS011;31345;51.522;10.702;2022-08-19T02:25:11;20.23;;;18.10;;
45620;SDS011;31345;51.522;10.702;2022-08-19T02:27:41;23.45;;;20.73;;
45620;SDS011;31345;51.522;10.702;2022-08-19T02:30:10;21.35;;;19.00;;
45620;SDS011;31345;51.522;10.702;2022-08-19T02:32:41;22.23;;;19.67;;
45620;SDS011;31345;51.522;10.702;2022-08-19T02:35:09;20.98;;;18.73;;
45620;SDS011;31345;51.522;10.702;2022-08-19T02:37:37;20.48;;;17.58;;
45620;SDS011;31345;51.522;10.702;2022-08-19T02:40:22;22.80;;;18.75;;
45620;SDS011;31345;51.522;10.702;2022-08-19T02:42:51;21.75;;;19.38;;
45620;SDS011;31345;51.522;10.702;2022-08-19T02:45:19;22.48;;;20.02;;
45620;SDS011;31345;51.522;10.702;2022-08-19T02:47:46;20.08;;;17.73;;
45620;SDS011;31345;51.522;10.702;2022-08-19T02:50:14;22.65;;;18.33;;
45620;SDS011;31345;51.522;10.702;2022-08-19T02:52:41;23.10;;;18.15;;
45620;SDS011;31345;51.522;10.702;2022-08-19T02:55:09;23.50;;;21.02;;
45620;SDS011;31345;51.522;10.702;2022-08-19T02:57:36;26.65;;;21.55;;
45620;SDS011;31345;51.522;10.702;2022-08-19T03:00:06;23.13;;;20.02;;
45620;SDS011;31345;51.522;10.702;2022-08-19T03:02:37;26.25;;;20.15;;
45620;SDS011;31345;51.522;10.702;2022-08-19T03:05:05;24.10;;;20.77;;
45620;SDS011;31345;51.522;10.702;2022-08-19T03:07:34;21.85;;;19.33;;
45620;SDS011;31345;51.522;10.702;2022-08-19T03:10:02;25.98;;;20.25;;
45620;SDS011;31345;51.522;10.702;2022-08-19T03:12:30;25.27;;;21.80;;
45620;SDS011;31345;51.522;10.702;2022-08-19T03:14:58;25.83;;;21.15;;
45620;SDS011;31345;51.522;10.702;2022-08-19T03:17:28;26.42;;;22.23;;
45620;SDS011;31345;51.522;10.702;2022-08-19T03:19:55;26.25;;;21.42;;
45620;SDS011;31345;51.522;10.702;2022-08-19T03:22:23;24.30;;;20.80;;
45620;SDS011;31345;51.522;10.702;2022-08-19T03:24:51;24.95;;;20.73;;
45620;SDS011;31345;51.522;10.702;2022-08-19T03:27:19;22.08;;;19.70;;
45620;SDS011;31345;51.522;10.702;2022-08-19T03:29:47;24.42;;;21.33;;
45620;SDS011;31345;51.522;10.702;2022-08-19T03:32:14;23.38;;;20.75;;
45620;SDS011;31345;51.522;10.702;2022-08-19T03:34:43;27.05;;;21.98;;
45620;SDS011;31345;51.522;10.702;2022-08-19T03:37:11;24.33;;;21.42;;
45620;SDS011;31345;51.522;10.702;2022-08-19T03:39:40;27.67;;;22.50;;
45620;SDS011;31345;51.522;10.702;2022-08-19T03:42:08;25.80;;;22.08;;
45620;SDS011;31345;51.522;10.702;2022-08-19T03:44:36;28.90;;;24.30;;
45620;SDS011;31345;51.522;10.702;2022-08-19T03:47:04;33.10;;;25.00;;
45620;SDS011;31345;51.522;10.702;2022-08-19T03:49:32;28.17;;;23.30;;
45620;SDS011;31345;51.522;10.702;2022-08-19T03:52:02;28.20;;;22.85;;
45620;SDS011;31345;51.522;10.702;2022-08-19T03:54:33;28.13;;;22.38;;
45620;SDS011;31345;51.522;10.702;2022-08-19T03:57:01;29.67;;;23.52;;
45620;SDS011;31345;51.522;10.702;2022-08-19T03:59:30;24.33;;;21.00;;
45620;SDS011;31345;51.522;10.702;2022-08-19T04:02:01;24.50;;;20.75;;
45620;SDS011;31345;51.522;10.702;2022-08-19T04:04:34;23.65;;;18.60;;
45620;SDS011;31345;51.522;10.702;2022-08-19T04:07:05;23.35;;;18.35;;
45620;SDS011;31345;51.522;10.702;2022-08-19T04:09:34;24.17;;;16.67;;
45620;SDS011;31345;51.522;10.702;2022-08-19T04:12:03;21.30;;;16.90;;
45620;SDS011;31345;51.522;10.702;2022-08-19T04:14:32;20.30;;;17.05;;
45620;SDS011;31345;51.522;10.702;2022-08-19T04:17:02;21.10;;;15.25;;
45620;SDS011;31345;51.522;10.702;2022-08-19T04:19:31;18.83;;;15.50;;
45620;SDS011;31345;51.522;10.702;2022-08-19T04:22:00;21.20;;;15.02;;
45620;SDS011;31345;51.522;10.702;2022-08-19T04:24:29;17.67;;;14.90;;
45620;SDS011;31345;51.522;10.702;2022-08-19T04:26:58;19.30;;;14.95;;
45620;SDS011;31345;51.522;10.702;2022-08-19T04:29:27;16.10;;;14.20;;
45620;SDS011;31345;51.522;10.702;2022-08-19T04:31:56;16.42;;;14.73;;
45620;SDS011;31345;51.522;10.702;2022-08-19T04:34:25;18.90;;;14.98;;
45620;SDS011;31345;51.522;10.702;2022-08-19T04:36:54;17.52;;;13.85;;
45620;SDS011;31345;51.522;10.702;2022-08-19T04:39:25;17.23;;;13.45;;
45620;SDS011;31345;51.522;10.702;2022-08-19T04:42:17;22.67;;;14.90;;
45620;SDS011;31345;51.522;10.702;2022-08-19T04:45:02;17.90;;;13.45;;
45620;SDS011;31345;51.522;10.702;2022-08-19T04:47:31;17.67;;;12.98;;
45620;SDS011;31345;51.522;10.702;2022-08-19T04:49:59;18.45;;;14.77;;
45620;SDS011;31345;51.522;10.702;2022-08-19T04:52:27;19.20;;;13.82;;
45620;SDS011;31345;51.522;10.702;2022-08-19T04:54:57;18.17;;;14.00;;
45620;SDS011;31345;51.522;10.702;2022-08-19T04:57:26;20.90;;;13.77;;
45620;SDS011;31345;51.522;10.702;2022-08-19T04:59:54;20.83;;;14.77;;
45620;SDS011;31345;51.522;10.702;2022-08-19T05:02:22;23.88;;;15.23;;
45620;SDS011;31345;51.522;10.702;2022-08-19T05:04:50;18.98;;;14.27;;
45620;SDS011;31345;51.522;10.702;2022-08-19T05:07:18;19.42;;;14.75;;
45620;SDS011;31345;51.522;10.702;2022-08-19T05:09:45;18.20;;;15.02;;
45620;SDS011;31345;51.522;10.702;2022-08-19T05:12:13;19.27;;;14.60;;
45620;SDS011;31345;51.522;10.702;2022-08-19T05:14:42;21.80;;;15.30;;
45620;SDS011;31345;51.522;10.702;2022-08-19T05:17:11;20.08;;;15.80;;
45620;SDS011;31345;51.522;10.702;2022-08-19T05:19:39;21.92;;;16.27;;
45620;SDS011;31345;51.522;10.702;2022-08-19T05:22:24;18.85;;;13.82;;
45620;SDS011;31345;51.522;10.702;2022-08-19T05:25:03;19.95;;;16.45;;
45620;SDS011;31345;51.522;10.702;2022-08-19T05:27:33;20.98;;;15.20;;
45620;SDS011;31345;51.522;10.702;2022-08-19T05:30:02;18.73;;;15.20;;
45620;SDS011;31345;51.522;10.702;2022-08-19T05:32:31;22.27;;;16.43;;
45620;SDS011;31345;51.522;10.702;2022-08-19T05:34:59;22.52;;;17.15;;
45620;SDS011;31345;51.522;10.702;2022-08-19T05:37:26;22.98;;;17.15;;
45620;SDS011;31345;51.522;10.702;2022-08-19T05:39:54;23.20;;;17.63;;
45620;SDS011;31345;51.522;10.702;2022-08-19T05:42:22;19.63;;;16.25;;
45620;SDS011;31345;51.522;10.702;2022-08-19T05:44:50;21.17;;;16.38;;
45620;SDS011;31345;51.522;10.702;2022-08-19T05:47:19;22.15;;;15.88;;
45620;SDS011;31345;51.522;10.702;2022-08-19T05:49:48;21.40;;;17.00;;
45620;SDS011;31345;51.522;10.702;2022-08-19T05:52:16;22.08;;;15.35;;
45620;SDS011;31345;51.522;10.702;2022-08-19T05:54:45;18.80;;;15.40;;
45620;SDS011;31345;51.522;10.702;2022-08-19T05:57:14;18.08;;;14.40;;
45620;SDS011;31345;51.522;10.702;2022-08-19T05:59:41;20.20;;;14.95;;
45620;SDS011;31345;51.522;10.702;2022-08-19T06:02:11;16.90;;;13.20;;
45620;SDS011;31345;51.522;10.702;2022-08-19T06:04:40;17.02;;;13.25;;
45620;SDS011;31345;51.522;10.702;2022-08-19T06:07:09;19.35;;;14.57;;
45620;SDS011;31345;51.522;10.702;2022-08-19T06:09:37;18.20;;;13.85;;
45620;SDS011;31345;51.522;10.702;2022-08-19T06:12:05;16.88;;;13.10;;
45620;SDS011;31345;51.522;10.702;2022-08-19T06:14:34;14.27;;;11.30;;
45620;SDS011;31345;51.522;10.702;2022-08-19T06:17:02;15.63;;;12.32;;
45620;SDS011;31345;51.522;10.702;2022-08-19T06:19:29;17.58;;;12.05;;
45620;SDS011;31345;51.522;10.702;2022-08-19T06:21:59;21.65;;;12.30;;
45620;SDS011;31345;51.522;10.702;2022-08-19T06:24:27;14.13;;;11.48;;
45620;SDS011;31345;51.522;10.702;2022-08-19T06:26:57;15.38;;;11.55;;
45620;SDS011;31345;51.522;10.702;2022-08-19T06:29:25;14.93;;;10.93;;
45620;SDS011;31345;51.522;10.702;2022-08-19T06:31:54;13.63;;;10.80;;
45620;SDS011;31345;51.522;10.702;2022-08-19T06:34:24;11.98;;;9.43;;
45620;SDS011;31345;51.522;10.702;2022-08-19T06:36:53;11.15;;;9.48;;
45620;SDS011;31345;51.522;10.702;2022-08-19T06:39:23;13.38;;;9.80;;
45620;SDS011;31345;51.522;10.702;2022-08-19T06:41:56;12.40;;;9.52;;
45620;SDS011;31345;51.522;10.702;2022-08-19T06:44:29;12.25;;;9.55;;
45620;SDS011;31345;51.522;10.702;2022-08-19T06:47:01;12.18;;;9.65;;
45620;SDS011;31345;51.522;10.702;2022-08-19T06:49:29;10.63;;;8.52;;
45620;SDS011;31345;51.522;10.702;2022-08-19T06:51:57;11.23;;;8.27;;
45620;SDS011;31345;51.522;10.702;2022-08-19T06:54:27;10.77;;;8.63;;
45620;SDS011;31345;51.522;10.702;2022-08-19T06:56:55;10.52;;;8.32;;
45620;SDS011;31345;51.522;10.702;2022-08-19T06:59:23;11.05;;;8.25;;
45620;SDS011;31345;51.522;10.702;2022-08-19T07:01:54;10.35;;;7.90;;
45620;SDS011;31345;51.522;10.702;2022-08-19T07:04:23;9.23;;;7.30;;
45620;SDS011;31345;51.522;10.702;2022-08-19T07:06:56;9.27;;;7.25;;
45620;SDS011;31345;51.522;10.702;2022-08-19T07:09:25;11.07;;;7.15;;
45620;SDS011;31345;51.522;10.702;2022-08-19T07:11:55;9.80;;;6.95;;
45620;SDS011;31345;51.522;10.702;2022-08-19T07:14:24;9.85;;;7.05;;
45620;SDS011;31345;51.522;10.702;2022-08-19T07:16:54;9.90;;;6.75;;
45620;SDS011;31345;51.522;10.702;2022-08-19T07:19:24;9.88;;;5.93;;
45620;SDS011;31345;51.522;10.702;2022-08-19T07:21:54;8.70;;;5.90;;
45620;SDS011;31345;51.522;10.702;2022-08-19T07:24:23;7.72;;;5.35;;
45620;SDS011;31345;51.522;10.702;2022-08-19T07:26:53;8.05;;;5.95;;
45620;SDS011;31345;51.522;10.702;2022-08-19T07:29:22;6.78;;;5.38;;
45620;SDS011;31345;51.522;10.702;2022-08-19T07:31:51;6.78;;;5.03;;
45620;SDS011;31345;51.522;10.702;2022-08-19T07:34:22;9.43;;;5.25;;
45620;SDS011;31345;51.522;10.702;2022-08-19T07:36:51;6.63;;;4.70;;
45620;SDS011;31345;51.522;10.702;2022-08-19T07:39:20;7.60;;;5.47;;
45620;SDS011;31345;51.522;10.702;2022-08-19T07:41:50;10.23;;;5.35;;
45620;SDS011;31345;51.522;10.702;2022-08-19T07:44:21;4.95;;;4.25;;
45620;SDS011;31345;51.522;10.702;2022-08-19T07:46:49;6.18;;;5.10;;
45620;SDS011;31345;51.522;10.702;2022-08-19T07:49:19;7.47;;;5.43;;
45620;SDS011;31345;51.522;10.702;2022-08-19T07:51:48;6.07;;;4.72;;
45620;SDS011;31345;51.522;10.702;2022-08-19T07:54:18;7.85;;;4.63;;
45620;SDS011;31345;51.522;10.702;2022-08-19T07:56:47;7.32;;;4.85;;
45620;SDS011;31345;51.522;10.702;2022-08-19T07:59:17;7.30;;;4.72;;
45620;SDS011;31345;51.522;10.702;2022-08-19T08:01:45;8.18;;;4.72;;
45620;SDS011;31345;51.522;10.702;2022-08-19T08:04:13;6.85;;;4.70;;
45620;SDS011;31345;51.522;10.702;2022-08-19T08:06:58;8.07;;;4.95;;
45620;SDS011;31345;51.522;10.702;2022-08-19T08:09:44;7.20;;;4.68;;
45620;SDS011;31345;51.522;10.702;2022-08-19T08:12:13;9.25;;;4.75;;
45620;SDS011;31345;51.522;10.702;2022-08-19T08:14:46;7.90;;;4.82;;
45620;SDS011;31345;51.522;10.702;2022-08-19T08:17:17;4.97;;;4.32;;
45620;SDS011;31345;51.522;10.702;2022-08-19T08:19:46;10.50;;;4.68;;
45620;SDS011;31345;51.522;10.702;2022-08-19T08:22:18;6.88;;;4.88;;
45620;SDS011;31345;51.522;10.702;2022-08-19T08:25:01;10.05;;;4.40;;
45620;SDS011;31345;51.522;10.702;2022-08-19T08:27:31;5.63;;;4.35;;
45620;SDS011;31345;51.522;10.702;2022-08-19T08:30:07;8.73;;;4.60;;
45620;SDS011;31345;51.522;10.702;2022-08-19T08:32:36;6.57;;;4.60;;
45620;SDS011;31345;51.522;10.702;2022-08-19T08:35:04;7.05;;;3.90;;
45620;SDS011;31345;51.522;10.702;2022-08-19T08:37:32;6.70;;;4.47;;
45620;SDS011;31345;51.522;10.702;2022-08-19T08:40:02;7.43;;;4.53;;
45620;SDS011;31345;51.522;10.702;2022-08-19T08:42:32;9.30;;;4.05;;
45620;SDS011;31345;51.522;10.702;2022-08-19T08:45:04;7.07;;;4.32;;
45620;SDS011;31345;51.522;10.702;2022-08-19T08:47:42;6.68;;;4.55;;
45620;SDS011;31345;51.522;10.702;2022-08-19T08:50:15;8.07;;;5.05;;
45620;SDS011;31345;51.522;10.702;2022-08-19T08:52:47;5.72;;;4.18;;
45620;SDS011;31345;51.522;10.702;2022-08-19T08:55:20;6.43;;;4.38;;
45620;SDS011;31345;51.522;10.702;2022-08-19T08:57:52;5.90;;;4.13;;
45620;SDS011;31345;51.522;10.702;2022-08-19T09:00:24;8.00;;;4.80;;
45620;SDS011;31345;51.522;10.702;2022-08-19T09:02:54;5.30;;;4.65;;
45620;SDS011;31345;51.522;10.702;2022-08-19T09:05:23;6.20;;;4.45;;
45620;SDS011;31345;51.522;10.702;2022-08-19T09:07:58;5.50;;;4.35;;
45620;SDS011;31345;51.522;10.702;2022-08-19T09:10:37;6.30;;;4.18;;
45620;SDS011;31345;51.522;10.702;2022-08-19T09:13:09;6.85;;;4.07;;
45620;SDS011;31345;51.522;10.702;2022-08-19T09:15:45;9.60;;;4.10;;
45620;SDS011;31345;51.522;10.702;2022-08-19T09:18:16;8.65;;;4.78;;
45620;SDS011;31345;51.522;10.702;2022-08-19T09:20:45;7.25;;;4.00;;
45620;SDS011;31345;51.522;10.702;2022-08-19T09:23:14;4.30;;;3.38;;
45620;SDS011;31345;51.522;10.702;2022-08-19T09:25:42;5.05;;;3.88;;
45620;SDS011;31345;51.522;10.702;2022-08-19T09:28:09;6.20;;;4.18;;
45620;SDS011;31345;51.522;10.702;2022-08-19T09:30:38;10.80;;;3.60;;
45620;SDS011;31345;51.522;10.702;2022-08-19T09:33:08;5.22;;;3.38;;
45620;SDS011;31345;51.522;10.702;2022-08-19T09:35:36;4.25;;;3.30;;
45620;SDS011;31345;51.522;10.702;2022-08-19T09:38:03;6.60;;;3.50;;
45620;SDS011;31345;51.522;10.702;2022-08-19T09:40:31;6.75;;;4.05;;
45620;SDS011;31345;51.522;10.702;2022-08-19T09:42:59;7.20;;;3.33;;
45620;SDS011;31345;51.522;10.702;2022-08-19T09:45:28;4.10;;;3.33;;
45620;SDS011;31345;51.522;10.702;2022-08-19T09:47:56;5.57;;;3.13;;
45620;SDS011;31345;51.522;10.702;2022-08-19T09:50:25;5.25;;;3.47;;
45620;SDS011;31345;51.522;10.702;2022-08-19T09:52:52;6.85;;;3.40;;
45620;SDS011;31345;51.522;10.702;2022-08-19T09:55:20;5.03;;;3.35;;
45620;SDS011;31345;51.522;10.702;2022-08-19T09:57:48;5.95;;;3.53;;
45620;SDS011;31345;51.522;10.702;2022-08-19T10:00:15;5.18;;;2.95;;
45620;SDS011;31345;51.522;10.702;2022-08-19T10:02:43;6.22;;;3.13;;
45620;SDS011;31345;51.522;10.702;2022-08-19T10:05:10;7.40;;;3.20;;
45620;SDS011;31345;51.522;10.702;2022-08-19T10:07:57;5.35;;;2.88;;
45620;SDS011;31345;51.522;10.702;2022-08-19T10:10:26;4.30;;;3.30;;
45620;SDS011;31345;51.522;10.702;2022-08-19T10:12:54;5.05;;;2.70;;
45620;SDS011;31345;51.522;10.702;2022-08-19T10:15:22;3.60;;;3.08;;
45620;SDS011;31345;51.522;10.702;2022-08-19T10:17:49;4.38;;;2.85;;
45620;SDS011;31345;51.522;10.702;2022-08-19T10:20:17;5.07;;;3.15;;
45620;SDS011;31345;51.522;10.702;2022-08-19T10:22:44;7.10;;;2.72;;
45620;SDS011;31345;51.522;10.702;2022-08-19T10:25:13;4.93;;;2.60;;
45620;SDS011;31345;51.522;10.702;2022-08-19T10:27:42;3.35;;;2.47;;
45620;SDS011;31345;51.522;10.702;2022-08-19T10:30:10;3.60;;;2.40;;
45620;SDS011;31345;51.522;10.702;2022-08-19T10:32:39;5.00;;;2.80;;
45620;SDS011;31345;51.522;10.702;2022-08-19T10:35:06;3.50;;;2.38;;
45620;SDS011;31345;51.522;10.702;2022-08-19T10:37:35;3.38;;;2.67;;
45620;SDS011;31345;51.522;10.702;2022-08-19T10:40:03;4.18;;;2.75;;
45620;SDS011;31345;51.522;10.702;2022-08-19T10:42:34;5.30;;;2.30;;
45620;SDS011;31345;51.522;10.702;2022-08-19T10:45:02;3.75;;;2.30;;
45620;SDS011;31345;51.522;10.702;2022-08-19T10:47:32;5.82;;;2.53;;
45620;SDS011;31345;51.522;10.702;2022-08-19T10:50:00;4.00;;;3.03;;
45620;SDS011;31345;51.522;10.702;2022-08-19T10:52:47;3.58;;;2.55;;
45620;SDS011;31345;51.522;10.702;2022-08-19T10:55:16;3.75;;;2.38;;
45620;SDS011;31345;51.522;10.702;2022-08-19T10:58:06;3.28;;;2.55;;
45620;SDS011;31345;51.522;10.702;2022-08-19T11:00:38;13.32;;;3.40;;
45620;SDS011;31345;51.522;10.702;2022-08-19T11:03:06;4.80;;;2.80;;
45620;SDS011;31345;51.522;10.702;2022-08-19T11:05:33;5.20;;;2.70;;
45620;SDS011;31345;51.522;10.702;2022-08-19T11:08:03;4.05;;;2.35;;
45620;SDS011;31345;51.522;10.702;2022-08-19T11:10:31;3.70;;;2.63;;
45620;SDS011;31345;51.522;10.702;2022-08-19T11:12:58;3.50;;;2.20;;
45620;SDS011;31345;51.522;10.702;2022-08-19T11:15:28;5.53;;;2.30;;
45620;SDS011;31345;51.522;10.702;2022-08-19T11:17:58;3.80;;;2.33;;
45620;SDS011;31345;51.522;10.702;2022-08-19T11:20:25;3.45;;;2.38;;
45620;SDS011;31345;51.522;10.702;2022-08-19T11:22:53;3.60;;;2.50;;
45620;SDS011;31345;51.522;10.702;2022-08-19T11:25:21;5.72;;;2.25;;
45620;SDS011;31345;51.522;10.702;2022-08-19T11:27:48;3.22;;;2.10;;
45620;SDS011;31345;51.522;10.702;2022-08-19T11:30:18;3.00;;;1.90;;
45620;SDS011;31345;51.522;10.702;2022-08-19T11:32:46;4.43;;;2.40;;
45620;SDS011;31345;51.522;10.702;2022-08-19T11:35:14;5.15;;;2.00;;
45620;SDS011;31345;51.522;10.702;2022-08-19T11:37:42;3.97;;;2.40;;
45620;SDS011;31345;51.522;10.702;2022-08-19T11:40:10;4.50;;;2.20;;
45620;SDS011;31345;51.522;10.702;2022-08-19T11:42:38;3.22;;;2.00;;
45620;SDS011;31345;51.522;10.702;2022-08-19T11:45:25;4.38;;;2.20;;
45620;SDS011;31345;51.522;10.702;2022-08-19T11:47:55;6.03;;;2.13;;
45620;SDS011;31345;51.522;10.702;2022-08-19T11:50:23;3.85;;;2.30;;
45620;SDS011;31345;51.522;10.702;2022-08-19T11:52:52;3.30;;;1.95;;
45620;SDS011;31345;51.522;10.702;2022-08-19T11:55:21;3.35;;;2.30;;
45620;SDS011;31345;51.522;10.702;2022-08-19T11:57:49;3.55;;;1.90;;
45620;SDS011;31345;51.522;10.702;2022-08-19T12:00:17;3.65;;;2.13;;
45620;SDS011;31345;51.522;10.702;2022-08-19T12:02:44;3.35;;;2.13;;
45620;SDS011;31345;51.522;10.702;2022-08-19T12:05:13;4.20;;;2.60;;
45620;SDS011;31345;51.522;10.702;2022-08-19T12:07:41;4.15;;;2.08;;
45620;SDS011;31345;51.522;10.702;2022-08-19T12:10:09;6.55;;;2.35;;
45620;SDS011;31345;51.522;10.702;2022-08-19T12:12:37;3.58;;;2.15;;
45620;SDS011;31345;51.522;10.702;2022-08-19T12:15:08;3.65;;;2.50;;
45620;SDS011;31345;51.522;10.702;2022-08-19T12:17:37;4.75;;;2.25;;
45620;SDS011;31345;51.522;10.702;2022-08-19T12:20:06;6.40;;;2.10;;
45620;SDS011;31345;51.522;10.702;2022-08-19T12:22:37;3.07;;;2.23;;
45620;SDS011;31345;51.522;10.702;2022-08-19T12:25:05;5.93;;;2.50;;
45620;SDS011;31345;51.522;10.702;2022-08-19T12:27:33;3.45;;;1.88;;
45620;SDS011;31345;51.522;10.702;2022-08-19T12:30:02;5.40;;;2.10;;
45620;SDS011;31345;51.522;10.702;2022-08-19T12:32:30;4.60;;;2.10;;
45620;SDS011;31345;51.522;10.702;2022-08-19T12:34:57;3.45;;;1.95;;
45620;SDS011;31345;51.522;10.702;2022-08-19T12:37:25;4.93;;;2.22;;
45620;SDS011;31345;51.522;10.702;2022-08-19T12:39:54;5.55;;;2.33;;
45620;SDS011;31345;51.522;10.702;2022-08-19T12:42:21;3.50;;;1.92;;
45620;SDS011;31345;51.522;10.702;2022-08-19T12:44:50;4.72;;;2.22;;
45620;SDS011;31345;51.522;10.702;2022-08-19T12:47:19;2.53;;;1.83;;
45620;SDS011;31345;51.522;10.702;2022-08-19T12:49:48;4.78;;;2.03;;
45620;SDS011;31345;51.522;10.702;2022-08-19T12:52:15;2.72;;;2.10;;
45620;SDS011;31345;51.522;10.702;2022-08-19T12:54:46;4.43;;;1.98;;
45620;SDS011;31345;51.522;10.702;2022-08-19T12:57:15;3.58;;;1.83;;
45620;SDS011;31345;51.522;10.702;2022-08-19T12:59:43;4.40;;;2.15;;
45620;SDS011;31345;51.522;10.702;2022-08-19T13:02:10;3.92;;;2.20;;
45620;SDS011;31345;51.522;10.702;2022-08-19T13:04:38;3.35;;;2.08;;
45620;SDS011;31345;51.522;10.702;2022-08-19T13:07:07;5.68;;;2.42;;
45620;SDS011;31345;51.522;10.702;2022-08-19T13:09:35;6.88;;;2.15;;
45620;SDS011;31345;51.522;10.702;2022-08-19T13:12:03;5.03;;;2.20;;
45620;SDS011;31345;51.522;10.702;2022-08-19T13:14:35;10.90;;;2.67;;
45620;SDS011;31345;51.522;10.702;2022-08-19T13:17:03;5.35;;;1.98;;
45620;SDS011;31345;51.522;10.702;2022-08-19T13:19:31;5.50;;;2.17;;
45620;SDS011;31345;51.522;10.702;2022-08-19T13:21:58;2.95;;;2.10;;
45620;SDS011;31345;51.522;10.702;2022-08-19T13:24:26;3.75;;;2.03;;
45620;SDS011;31345;51.522;10.702;2022-08-19T13:26:53;4.18;;;2.13;;
45620;SDS011;31345;51.522;10.702;2022-08-19T13:29:21;5.28;;;2.20;;
45620;SDS011;31345;51.522;10.702;2022-08-19T13:32:07;3.45;;;1.90;;
45620;SDS011;31345;51.522;10.702;2022-08-19T13:34:51;4.15;;;1.73;;
45620;SDS011;31345;51.522;10.702;2022-08-19T13:37:19;2.65;;;2.00;;
45620;SDS011;31345;51.522;10.702;2022-08-19T13:40:07;35.70;;;7.18;;
45620;SDS011;31345;51.522;10.702;2022-08-19T13:42:37;3.60;;;2.00;;
45620;SDS011;31345;51.522;10.702;2022-08-19T13:45:06;6.93;;;2.20;;
45620;SDS011;31345;51.522;10.702;2022-08-19T13:47:35;4.80;;;1.80;;
45620;SDS011;31345;51.522;10.702;2022-08-19T13:50:09;3.20;;;1.50;;
45620;SDS011;31345;51.522;10.702;2022-08-19T13:52:37;159.55;;;26.58;;
45620;SDS011;31345;51.522;10.702;2022-08-19T13:55:05;88.68;;;13.63;;
45620;SDS011;31345;51.522;10.702;2022-08-19T13:57:34;41.63;;;8.35;;
45620;SDS011;31345;51.522;10.702;2022-08-19T14:00:06;3.05;;;1.65;;
45620;SDS011;31345;51.522;10.702;2022-08-19T14:02:38;3.05;;;1.67;;
45620;SDS011;31345;51.522;10.702;2022-08-19T14:05:06;8.93;;;2.38;;
45620;SDS011;31345;51.522;10.702;2022-08-19T14:07:35;4.55;;;1.77;;
45620;SDS011;31345;51.522;10.702;2022-08-19T14:10:05;3.60;;;2.08;;
45620;SDS011;31345;51.522;10.702;2022-08-19T14:15:02;3.53;;;2.08;;
45620;SDS011;31345;51.522;10.702;2022-08-19T14:17:30;2.58;;;1.50;;
45620;SDS011;31345;51.522;10.702;2022-08-19T14:20:02;4.38;;;1.73;;
45620;SDS011;31345;51.522;10.702;2022-08-19T14:22:35;3.75;;;1.60;;
45620;SDS011;31345;51.522;10.702;2022-08-19T14:25:03;3.25;;;1.70;;
45620;SDS011;31345;51.522;10.702;2022-08-19T14:27:32;4.55;;;1.73;;
45620;SDS011;31345;51.522;10.702;2022-08-19T14:30:00;4.82;;;1.65;;
45620;SDS011;31345;51.522;10.702;2022-08-19T14:32:27;3.97;;;1.88;;
45620;SDS011;31345;51.522;10.702;2022-08-19T14:34:55;2.80;;;1.80;;
45620;SDS011;31345;51.522;10.702;2022-08-19T14:37:24;3.30;;;1.80;;
45620;SDS011;31345;51.522;10.702;2022-08-19T14:39:52;2.65;;;1.60;;
45620;SDS011;31345;51.522;10.702;2022-08-19T14:42:19;3.45;;;1.88;;